FDMS/MTS METAR and TAF weather

Enter ICAO airport designator
Station Type Date Time Source
FDMS METAR 2018/12/13 14:00 UTC NOAA

FDMS 131400Z 09004KT 9999 SCT035 26/19 Q1018 NOSIG


Station Type Date Time Source
FDMS Decoded METAR 2018/12/13 14:00 UTC NOAA

Manzini / Matsapa Airport, Swaziland (FDMS) 26-32S 031-18E
Dec 13, 2018 - 09:00 AM EST / 2018.12.13 1400 UTC
Wind: from the E (090 degrees) at 5 MPH (4 KT):0
Visibility: greater than 7 mile(s):0
Sky conditions: partly cloudy
Temperature: 78 F (26 C)
Dew Point: 66 F (19 C)
Relative Humidity: 65%
Pressure (altimeter): 30.06 in. Hg (1018 hPa)
ob: FDMS 131400Z 09004KT 9999 SCT035 26/19 Q1018 NOSIG
cycle: 14

Station Type Date Time Source
FDMS TAF 2018/11/07 09:00 UTC NOAA

TAF FDMS 070700Z 0709/0718 19007KT 9999 BKN030


Example: see airport list